Have a Safe July 4th! 

Flight Track Log - Related Links

Times and Time Zones

All times are in EDT time to prevent confusion due to time zone crossing. See the N727BG flight status page for this flight to view local times or setup timezone preferences in your user account.

Time Position Orientation Groundspeed Altitude Reporting Facility
EDT Latitude Longitude Course Direction KTS MPH feet Rate Location/Type
Sat 09:08:58 AM 38.7833 -77.0333 72° East 217 250 2,800  Level Potomac TRACON
Sat 09:10:47 AM 38.7350 -77.1006 227° Southwest 167 192 8,000 3,000 Climbing Washington Center
Sat 09:11:48 AM 38.7969 -77.1606 323° Northwest 153 176 11,300 3,098 Climbing Washington Center
Sat 09:12:49 AM 38.8881 -77.2025 340° North 239 275 14,300 2,773 Climbing Washington Center
Sat 09:13:47 AM 38.9967 -77.1833 North 318 366 16,800 2,339 Climbing Washington Center
Sat 09:14:00 AM 39.3744 -76.6294 72° East  Level Estimated
Sat 09:14:47 AM 39.0422 -77.0428 67° East 301 346 18,900  Level Washington Center
Sat 09:15:48 AM 39.0628 -76.8936 80° East 345 397 19,000 49 Climbing Washington Center
Sat 09:16:49 AM 39.0831 -76.7361 81° East 375 432 19,000 545 Level Washington Center
Sat 09:17:49 AM 39.1031 -76.5786 81° East 422 486 20,100 1,322 Climbing Washington Center
Sat 09:18:47 AM 39.1253 -76.4183 80° East 439 505 21,600 1,462 Climbing Washington Center
Sat 09:19:48 AM 39.1450 -76.2525 81° East 453 521 23,000 1,388 Climbing Washington Center
Sat 09:20:48 AM 39.1686 -76.0789 80° East 470 541 24,400 1,190 Climbing Washington Center
Sat 09:21:49 AM 39.1922 -75.9075 80° East 475 547 25,400 966 Climbing Washington Center
Sat 09:22:46 AM 39.2758 -75.7711 52° Northeast 468 539 26,300 750 Climbing Washington Center
Sat 09:23:49 AM 39.3739 -75.6453 45° Northeast 483 556 26,900 293 Climbing Washington Center
Sat 09:24:49 AM 39.4781 -75.5164 44° Northeast 489 563 26,900  Level Washington Center
Sat 09:25:48 AM 39.5800 -75.3814 46° Northeast 500 575 26,900  Level Washington Center
Sat 09:27:20 AM 39.7419 -75.1633 46° Northeast 530 610 26,900 39 Level New York Center
Sat 09:28:20 AM 39.8411 -75.0183 48° Northeast 530 610 27,000 50 Climbing New York Center
Sat 09:29:20 AM 39.9358 -74.8778 49° Northeast 523 602 27,000  Level New York Center
Sat 09:30:21 AM 40.0344 -74.7372 47° Northeast 517 595 27,000  Level New York Center
Sat 09:31:18 AM 40.1328 -74.5989 47° Northeast 517 595 27,000 -51 Level New York Center
Sat 09:32:18 AM 40.2222 -74.4706 48° Northeast 522 601 26,900 -50 Descending New York Center
Sat 09:33:19 AM 40.3342 -74.3542 38° Northeast 517 595 26,900  Level New York Center
Sat 09:34:18 AM 40.4461 -74.2344 39° Northeast 517 595 26,900 -779 Level New York Center
Sat 09:37:10 AM 40.7569 -73.9033 39° Northeast 506 582 23,900 -776 Descending Boston Center
Sat 09:38:10 AM 40.8628 -73.7847 40° Northeast 488 562 23,900  Level Boston Center
Sat 09:39:11 AM 40.9747 -73.6386 45° Northeast 494 568 23,900 -248 Level Boston Center
Sat 09:40:11 AM 41.0839 -73.5692 26° Northeast 496 571 23,400 -850 Descending Boston Center
Sat 09:41:11 AM 41.2075 -73.4858 27° Northeast 484 557 22,200 -1,339 Descending Boston Center
Sat 09:42:12 AM 41.3333 -73.4022 27° Northeast 474 545 20,700 -1,587 Descending Boston Center
Sat 09:43:12 AM 41.4458 -73.4206 353° North 419 482 19,000 -1,412 Descending Boston Center
Sat 09:44:11 AM 41.5831 -73.4392 354° North 440 506 17,900 -1,311 Descending Boston Center
Sat 09:45:11 AM 41.6892 -73.4575 353° North 446 513 16,400 -1,820 Descending Boston Center
Sat 09:46:13 AM 41.8203 -73.4819 352° North 432 497 14,200 -2,168 Descending Boston Center
Sat 09:47:10 AM 41.9350 -73.4978 354° North 419 482 12,100 -1,525 Descending Boston Center
Sat 09:48:11 AM 42.0431 -73.5192 352° North 406 467 11,200 -545 Descending Boston Center
Sat 09:49:11 AM 42.1283 -73.5289 355° North 401 461 11,000 -75 Descending Boston Center
Sat 09:50:51 AM 42.3372 -73.4878 North 400 460 11,000 -149 Level Boston Center
Sat 09:51:52 AM 42.4372 -73.4894 359° North 349 402 10,600 -787 Descending Boston Center
Sat 09:52:53 AM 42.5139 -73.5244 341° North 272 313 9,400 -1,357 Descending Boston Center
Sat 09:53:47 AM 42.5806 -73.5481 345° North 266 306 8,000 -1,075 Descending Boston Center
Sat 09:55:07 AM 42.6739 -73.5781 347° North 269 310 7,000 -771 Descending Boston Center
Sat 09:56:07 AM 42.7444 -73.6047 344° North 240 276 6,200 -887 Descending Boston Center
Sat 09:57:02 AM 42.7919 -73.6453 328° Northwest 212 244 5,300 -1,223 Descending Boston Center
Sat 09:57:50 AM 42.8272 -73.6772 326° Northwest 176 203 4,100 -1,667 Descending Boston Center
Sat 09:58:50 AM 42.8453 -73.7314 294° West 153 176 2,300 -1,228 Descending Boston Center
Sat 09:59:57 AM 42.8281 -73.7875 247° West 136 157 1,500 -609 Descending Boston Center
Sat 10:00:58 AM 42.7903 -73.8094 203° Southwest 147 169 1,000 -492 Descending Boston Center

Login

Don't have an account? Register now (free) for customized features, flight alerts, and more!